Time;durP1;ratioP1;P1;durP2;ratioP2;P2;SDS_P1;SDS_P2;PMS_P1;PMS_P2;Temp;Humidity;BMP_temperature;BMP_pressure;BME280_temperature;BME280_humidity;BME280_pressure;Samples;Min_cycle;Max_cycle;Signal;HPM_P1;HPM_P2
2021/06/08 00:01:23;;;;;;;;;;;;;;;17.01;65.15;102343.38;5053998;28;19913;-41
2021/06/08 00:03:48;;;;;;;;;;;;;;;16.91;65.90;102345.88;5057363;28;20383;-40
2021/06/08 00:06:14;;;;;;;;;;;;;;;16.90;64.21;102347.75;5057100;28;20418;-41
2021/06/08 00:08:39;;;;;;;;;;;;;;;16.87;64.96;102345.50;5056606;28;19999;-41
2021/06/08 00:11:04;;;;;;;;;;;;;;;16.83;67.51;102341.56;5057013;28;19952;-40
2021/06/08 00:13:29;;;;;;;;;;;;;;;16.79;65.90;102342.28;5056881;28;19916;-40
2021/06/08 00:15:55;;;;;;;;;;;;;;;16.79;65.36;102348.59;5057837;28;19917;-40
2021/06/08 00:18:20;;;;;;;;;;;;;;;16.78;66.51;102340.63;5057607;28;20320;-40
2021/06/08 00:20:45;;;;;;;;;;;;;;;16.78;65.13;102346.06;5057347;28;19966;-40
2021/06/08 00:23:10;;;;;;;;;;;;;;;16.77;66.05;102356.19;5056429;28;20258;-40
2021/06/08 00:25:36;;;;;;;;;;;;;;;16.67;65.69;102358.63;5056738;28;19913;-40
2021/06/08 00:28:03;;;;;;;;;;;;;;;16.62;65.62;102353.88;5056633;28;19917;-40
2021/06/08 00:30:29;;;;;;;;;;;;;;;16.63;64.40;102350.06;5056574;28;20361;-40
2021/06/08 00:32:54;;;;;;;;;;;;;;;16.63;64.70;102352.78;5056275;28;19917;-40
2021/06/08 00:35:19;;;;;;;;;;;;;;;16.56;65.65;102348.53;5056758;28;20341;-40
2021/06/08 00:37:45;;;;;;;;;;;;;;;16.53;64.81;102349.81;5056506;28;20376;-40
2021/06/08 00:40:10;;;;;;;;;;;;;;;16.51;65.27;102357.41;5056968;28;19912;-40
2021/06/08 00:42:36;;;;;;;;;;;;;;;16.45;65.81;102352.91;5056142;28;20373;-40
2021/06/08 00:45:02;;;;;;;;;;;;;;;16.44;65.42;102360.22;5088766;28;20361;-40
2021/06/08 00:47:28;;;;;;;;;;;;;;;16.42;64.90;102358.81;5056594;28;20222;-40
2021/06/08 00:49:53;;;;;;;;;;;;;;;16.41;64.37;102355.25;5056532;28;19919;-40
2021/06/08 00:52:18;;;;;;;;;;;;;;;16.43;64.23;102357.75;5056132;28;19913;-40
2021/06/08 00:54:44;;;;;;;;;;;;;;;16.43;63.88;102361.31;5056375;28;20020;-40
2021/06/08 00:57:09;;;;;;;;;;;;;;;16.41;64.31;102357.16;5055765;28;19959;-41
2021/06/08 00:59:34;;;;;;;;;;;;;;;16.39;63.55;102351.06;5056561;28;19913;-41
2021/06/08 01:01:59;;;;;;;;;;;;;;;16.38;63.43;102363.91;5054967;28;19920;-41
2021/06/08 01:04:25;;;;;;;;;;;;;;;16.37;63.10;102353.22;5056252;28;19985;-40
2021/06/08 01:06:50;;;;;;;;;;;;;;;16.36;62.87;102354.28;5055604;28;20276;-41
2021/06/08 01:09:15;;;;;;;;;;;;;;;16.32;63.25;102355.81;5055857;28;19913;-41
2021/06/08 01:11:41;;;;;;;;;;;;;;;16.27;63.80;102358.41;5055634;28;19920;-41
2021/06/08 01:14:06;;;;;;;;;;;;;;;16.21;63.39;102357.44;5055957;28;19966;-40
2021/06/08 01:16:32;;;;;;;;;;;;;;;16.18;63.88;102353.28;5054451;28;19948;-40
2021/06/08 01:18:57;;;;;;;;;;;;;;;16.13;63.44;102355.88;5055343;28;19920;-40
2021/06/08 01:21:22;;;;;;;;;;;;;;;16.09;63.49;102360.13;5055906;28;20376;-41
2021/06/08 01:23:48;;;;;;;;;;;;;;;16.08;63.35;102354.91;5055854;28;20242;-41
2021/06/08 01:26:13;;;;;;;;;;;;;;;16.04;63.35;102359.97;5055829;28;19939;-41
2021/06/08 01:28:39;;;;;;;;;;;;;;;16.03;63.27;102355.59;5055460;28;20264;-40
2021/06/08 01:31:08;;;;;;;;;;;;;;;16.02;62.84;102355.84;5055949;28;19924;-40
2021/06/08 01:33:38;;;;;;;;;;;;;;;15.98;62.99;102358.19;5055099;28;19913;-40
2021/06/08 01:36:04;;;;;;;;;;;;;;;15.93;63.18;102360.75;5055555;28;19913;-41
2021/06/08 01:38:29;;;;;;;;;;;;;;;15.90;62.77;102359.31;5055012;28;19913;-40
2021/06/08 01:40:55;;;;;;;;;;;;;;;15.89;62.87;102356.81;5055556;28;19913;-40
2021/06/08 01:43:20;;;;;;;;;;;;;;;15.88;62.82;102355.16;5055175;28;19916;-40
2021/06/08 01:45:50;;;;;;;;;;;;;;;15.86;63.44;102354.53;5055558;28;19966;-40
2021/06/08 01:48:15;;;;;;;;;;;;;;;15.80;63.04;102350.84;5055137;28;19952;-40
2021/06/08 01:50:40;;;;;;;;;;;;;;;15.72;62.75;102356.63;5055098;28;19966;-40
2021/06/08 01:53:12;;;;;;;;;;;;;;;15.68;63.02;102356.25;5055004;28;19919;-40
2021/06/08 01:55:39;;;;;;;;;;;;;;;15.66;63.00;102352.06;5055712;28;19913;-40
2021/06/08 01:58:11;;;;;;;;;;;;;;;15.62;63.14;102357.13;5054908;28;19920;-41
2021/06/08 02:00:44;;;;;;;;;;;;;;;15.57;62.92;102350.72;5055154;28;19999;-41
2021/06/08 02:03:30;;;;;;;;;;;;;;;15.54;62.99;102351.16;5054797;28;19912;-40
2021/06/08 02:06:14;;;;;;;;;;;;;;;15.49;63.16;102351.81;5055418;28;19913;-41
2021/06/08 02:08:50;;;;;;;;;;;;;;;15.47;63.03;102359.41;5054480;28;20375;-41
2021/06/08 02:11:27;;;;;;;;;;;;;;;15.46;63.11;102360.44;5054654;28;19917;-40
2021/06/08 02:14:00;;;;;;;;;;;;;;;15.45;62.86;102358.78;5054670;28;19920;-40
2021/06/08 02:16:31;;;;;;;;;;;;;;;15.43;63.22;102366.38;5054602;28;19979;-40
2021/06/08 02:18:56;;;;;;;;;;;;;;;15.39;63.98;102356.97;5054463;28;20015;-41
2021/06/08 02:21:26;;;;;;;;;;;;;;;15.31;63.42;102357.25;5054788;28;19959;-40
2021/06/08 02:23:52;;;;;;;;;;;;;;;15.26;63.48;102359.84;5054387;28;19935;-40
2021/06/08 02:26:18;;;;;;;;;;;;;;;15.22;63.36;102369.50;5054216;28;20048;-41
2021/06/08 02:28:44;;;;;;;;;;;;;;;15.14;63.59;102366.03;5054067;28;19928;-41
2021/06/08 02:31:10;;;;;;;;;;;;;;;15.12;63.97;102364.56;5054815;28;20350;-45
2021/06/08 02:33:36;;;;;;;;;;;;;;;15.10;63.52;102361.25;5053913;28;19913;-40
2021/06/08 02:36:03;;;;;;;;;;;;;;;15.05;63.51;102361.94;5054507;28;19920;-40
2021/06/08 02:38:29;;;;;;;;;;;;;;;15.01;63.25;102363.44;5054182;28;19916;-40
2021/06/08 02:40:55;;;;;;;;;;;;;;;14.99;63.57;102360.09;5054216;28;20013;-40
2021/06/08 02:43:22;;;;;;;;;;;;;;;14.98;63.47;102363.03;5054679;28;19921;-40
2021/06/08 02:45:48;;;;;;;;;;;;;;;14.94;63.41;102366.22;5054597;28;19917;-40
2021/06/08 02:48:14;;;;;;;;;;;;;;;14.96;63.76;102368.72;5053995;28;19920;-40
2021/06/08 02:50:41;;;;;;;;;;;;;;;14.95;63.37;102369.78;5054297;28;20004;-40
2021/06/08 02:53:06;;;;;;;;;;;;;;;14.90;63.76;102365.00;5053653;28;19958;-40
2021/06/08 02:55:32;;;;;;;;;;;;;;;14.86;63.36;102371.94;5053588;28;19967;-40
2021/06/08 02:57:58;;;;;;;;;;;;;;;14.84;63.53;102374.06;5053587;28;19917;-40
2021/06/08 03:00:24;;;;;;;;;;;;;;;14.81;63.54;102373.66;5054532;28;20070;-40
2021/06/08 03:02:52;;;;;;;;;;;;;;;14.77;63.56;102373.28;5054338;28;19920;-40
2021/06/08 03:05:28;;;;;;;;;;;;;;;14.74;63.71;102372.88;5054127;28;19919;-40
2021/06/08 03:07:56;;;;;;;;;;;;;;;14.70;63.70;102375.22;5053777;28;19921;-40
2021/06/08 03:10:22;;;;;;;;;;;;;;;14.67;63.74;102375.66;5053833;28;20368;-40
2021/06/08 03:12:49;;;;;;;;;;;;;;;14.63;64.63;102377.97;5053693;28;19913;-40
2021/06/08 03:15:16;;;;;;;;;;;;;;;14.58;63.91;102377.81;5053592;28;19924;-40
2021/06/08 03:17:43;;;;;;;;;;;;;;;14.56;63.88;102381.81;5054009;28;19913;-40
2021/06/08 03:20:13;;;;;;;;;;;;;;;14.52;63.87;102375.97;5053706;28;19966;-40
2021/06/08 03:22:43;;;;;;;;;;;;;;;14.52;64.08;102373.25;5053887;28;20299;-40
2021/06/08 03:25:09;;;;;;;;;;;;;;;14.48;64.51;102379.34;5053367;28;19916;-40
2021/06/08 03:27:35;;;;;;;;;;;;;;;14.40;64.29;102372.28;5053525;28;20054;-40
2021/06/08 03:30:00;;;;;;;;;;;;;;;14.42;64.32;102383.75;5054444;28;19935;-40
2021/06/08 03:32:27;;;;;;;;;;;;;;;14.40;63.89;102380.44;5051957;28;19931;-40
2021/06/08 03:34:52;;;;;;;;;;;;;;;14.38;64.21;102382.53;5053554;28;20007;-40
2021/06/08 03:37:19;;;;;;;;;;;;;;;14.35;64.19;102385.69;5055745;28;19950;-40
2021/06/08 03:39:47;;;;;;;;;;;;;;;14.33;64.01;102379.63;5057908;28;19924;-40
2021/06/08 03:42:12;;;;;;;;;;;;;;;14.32;64.20;102378.78;5058118;28;19912;-40
2021/06/08 03:44:38;;;;;;;;;;;;;;;14.30;64.30;102382.78;5058362;28;20012;-40
2021/06/08 03:47:03;;;;;;;;;;;;;;;14.30;64.15;102377.31;5057397;28;20007;-40
2021/06/08 03:49:29;;;;;;;;;;;;;;;14.29;64.14;102392.00;5057345;28;19919;-40
2021/06/08 03:51:54;;;;;;;;;;;;;;;14.26;64.38;102390.56;5057007;28;19923;-40
2021/06/08 03:54:20;;;;;;;;;;;;;;;14.24;64.36;102386.38;5057528;28;19967;-40
2021/06/08 03:56:47;;;;;;;;;;;;;;;14.22;64.31;102385.75;5056948;28;20256;-40
2021/06/08 03:59:13;;;;;;;;;;;;;;;14.21;64.56;102381.38;5057201;28;19920;-40
2021/06/08 04:01:39;;;;;;;;;;;;;;;14.17;64.51;102387.25;5057937;28;19912;-40
2021/06/08 04:04:05;;;;;;;;;;;;;;;14.17;64.47;102383.69;5057613;28;19939;-40
2021/06/08 04:06:30;;;;;;;;;;;;;;;14.17;64.35;102395.41;5057099;28;20365;-40
2021/06/08 04:08:56;;;;;;;;;;;;;;;14.16;64.68;102396.47;5057011;28;19920;-40
2021/06/08 04:11:21;;;;;;;;;;;;;;;14.15;64.90;102391.22;5056642;28;20398;-40
2021/06/08 04:13:46;;;;;;;;;;;;;;;14.17;64.42;102394.56;5056898;28;19920;-41
2021/06/08 04:16:12;;;;;;;;;;;;;;;14.21;64.49;102386.81;5056630;28;20269;-40
2021/06/08 04:18:38;;;;;;;;;;;;;;;14.24;64.43;102389.09;5056649;28;19912;-40
2021/06/08 04:21:04;;;;;;;;;;;;;;;14.28;64.46;102380.28;5056344;28;19936;-40
2021/06/08 04:23:29;;;;;;;;;;;;;;;14.32;64.70;102389.69;5056520;28;19956;-40
2021/06/08 04:25:55;;;;;;;;;;;;;;;14.33;64.63;102376.91;5056318;28;19913;-40
2021/06/08 04:28:21;;;;;;;;;;;;;;;14.33;64.83;102382.34;5056440;28;19955;-40
2021/06/08 04:30:47;;;;;;;;;;;;;;;14.35;64.55;102385.69;5056447;28;19966;-40
2021/06/08 04:33:13;;;;;;;;;;;;;;;14.42;64.48;102378.31;5057157;28;19919;-40
2021/06/08 04:35:39;;;;;;;;;;;;;;;14.51;65.68;102384.38;5056304;28;19920;-40
2021/06/08 04:38:04;;;;;;;;;;;;;;;14.56;65.31;102382.66;5056572;28;19964;-40
2021/06/08 04:40:30;;;;;;;;;;;;;;;14.65;67.00;102381.34;5056694;28;19913;-40
2021/06/08 04:42:55;;;;;;;;;;;;;;;14.72;66.29;102381.25;5056327;28;19920;-40
2021/06/08 04:45:21;;;;;;;;;;;;;;;14.83;66.87;102382.44;5056645;28;20361;-40
2021/06/08 04:47:46;;;;;;;;;;;;;;;14.90;66.77;102380.50;5056310;28;19956;-40
2021/06/08 04:50:12;;;;;;;;;;;;;;;15.02;65.59;102378.72;5056864;28;19913;-40
2021/06/08 04:52:38;;;;;;;;;;;;;;;15.17;65.49;102389.25;5054577;28;20289;-40
2021/06/08 04:55:04;;;;;;;;;;;;;;;15.05;67.12;102386.44;5055897;28;19916;-41
2021/06/08 04:57:29;;;;;;;;;;;;;;;15.06;67.00;102384.56;5056075;28;19967;-40
2021/06/08 04:59:57;;;;;;;;;;;;;;;15.17;67.65;102389.25;5056366;28;20307;-40
2021/06/08 05:02:25;;;;;;;;;;;;;;;15.25;66.66;102382.69;5056081;28;19967;-40
2021/06/08 05:04:50;;;;;;;;;;;;;;;15.35;66.57;102383.00;5055719;28;19917;-40
2021/06/08 05:07:16;;;;;;;;;;;;;;;15.39;66.20;102384.22;5056188;28;19912;-40
2021/06/08 05:09:44;;;;;;;;;;;;;;;15.40;66.25;102388.63;5055615;28;20000;-40
2021/06/08 05:12:11;;;;;;;;;;;;;;;15.40;65.92;102386.72;5056064;28;20318;-40
2021/06/08 05:14:37;;;;;;;;;;;;;;;15.33;66.91;102387.88;5055549;28;20011;-42
2021/06/08 05:17:03;;;;;;;;;;;;;;;15.35;66.51;102386.56;5055784;28;19999;-40
2021/06/08 05:19:29;;;;;;;;;;;;;;;15.33;67.01;102383.25;5055742;28;20335;-40
2021/06/08 05:21:54;;;;;;;;;;;;;;;15.48;66.62;102390.22;5055944;28;19969;-40
2021/06/08 05:24:22;;;;;;;;;;;;;;;15.58;67.25;102387.81;5055654;28;20252;-41
2021/06/08 05:26:48;;;;;;;;;;;;;;;15.70;66.25;102392.28;5055661;28;20424;-40
2021/06/08 05:29:17;;;;;;;;;;;;;;;15.87;65.87;102395.25;5055556;28;20265;-40
2021/06/08 05:31:42;;;;;;;;;;;;;;;16.09;65.68;102387.41;5056110;28;20345;-40
2021/06/08 05:34:08;;;;;;;;;;;;;;;16.23;64.80;102383.44;5055367;28;19920;-41
2021/06/08 05:36:35;;;;;;;;;;;;;;;16.32;64.78;102386.69;5055260;28;20391;-40
2021/06/08 05:39:00;;;;;;;;;;;;;;;16.30;64.34;102382.50;5055133;28;19975;-40
2021/06/08 05:41:26;;;;;;;;;;;;;;;16.28;64.05;102387.38;5054823;28;19920;-40
2021/06/08 05:43:52;;;;;;;;;;;;;;;16.19;64.46;102392.31;5055046;28;19913;-40
2021/06/08 05:46:17;;;;;;;;;;;;;;;16.33;64.32;102390.22;5055423;28;19919;-40
2021/06/08 05:48:42;;;;;;;;;;;;;;;16.46;63.86;102395.50;5055077;28;19913;-41
2021/06/08 05:51:08;;;;;;;;;;;;;;;16.57;63.15;102394.69;5054819;28;19958;-40
2021/06/08 05:53:36;;;;;;;;;;;;;;;16.58;62.67;102396.38;5055087;28;19986;-40
2021/06/08 05:56:02;;;;;;;;;;;;;;;16.61;63.02;102395.91;5055996;28;20011;-41
2021/06/08 05:58:28;;;;;;;;;;;;;;;16.77;63.39;102390.84;5055017;28;20014;-40
2021/06/08 06:00:54;;;;;;;;;;;;;;;16.84;62.68;102394.34;5054590;28;19913;-40
2021/06/08 06:03:21;;;;;;;;;;;;;;;16.88;62.86;102401.78;5054546;28;20250;-41
2021/06/08 06:05:46;;;;;;;;;;;;;;;16.96;62.71;102397.91;5054475;28;19962;-40
2021/06/08 06:08:12;;;;;;;;;;;;;;;17.07;62.54;102404.44;5054788;28;19917;-40
2021/06/08 06:10:37;;;;;;;;;;;;;;;17.10;61.72;102406.72;5054992;28;20366;-41
2021/06/08 06:13:04;;;;;;;;;;;;;;;17.21;61.75;102403.13;5054692;28;20276;-40
2021/06/08 06:15:30;;;;;;;;;;;;;;;17.27;61.73;102402.19;5054721;28;19917;-41
2021/06/08 06:17:55;;;;;;;;;;;;;;;17.36;61.81;102406.22;5054228;28;19917;-41
2021/06/08 06:20:21;;;;;;;;;;;;;;;17.40;60.53;102412.06;5055411;28;19917;-40
2021/06/08 06:22:46;;;;;;;;;;;;;;;17.46;60.61;102413.81;5054347;28;20333;-40
2021/06/08 06:25:12;;;;;;;;;;;;;;;17.47;60.39;102404.53;5054462;28;19913;-40
2021/06/08 06:27:39;;;;;;;;;;;;;;;17.57;60.86;102403.94;5054345;28;20108;-40
2021/06/08 06:30:06;;;;;;;;;;;;;;;17.64;60.38;102410.97;5054379;28;19916;-41
2021/06/08 06:32:33;;;;;;;;;;;;;;;17.73;60.87;102398.59;5054289;28;20013;-40
2021/06/08 06:34:58;;;;;;;;;;;;;;;17.83;60.71;102408.94;5054731;28;19962;-40
2021/06/08 06:37:24;;;;;;;;;;;;;;;17.93;59.86;102402.84;5054720;28;19921;-40
2021/06/08 06:39:50;;;;;;;;;;;;;;;17.94;59.13;102399.84;5054778;28;20292;-40
2021/06/08 06:42:15;;;;;;;;;;;;;;;18.01;60.10;102405.22;5054162;28;20000;-40
2021/06/08 06:44:42;;;;;;;;;;;;;;;18.09;59.67;102399.31;5054123;28;20374;-40
2021/06/08 06:47:07;;;;;;;;;;;;;;;18.07;59.12;102403.41;5054355;28;20403;-40
2021/06/08 06:49:33;;;;;;;;;;;;;;;18.16;59.53;102402.78;5054361;28;19913;-40
2021/06/08 06:51:58;;;;;;;;;;;;;;;18.24;59.49;102407.00;5054068;28;20254;-40
2021/06/08 06:54:24;;;;;;;;;;;;;;;18.30;59.33;102408.78;5054234;28;19917;-40
2021/06/08 06:56:49;;;;;;;;;;;;;;;18.35;59.33;102410.75;5054152;28;19966;-40
2021/06/08 06:59:14;;;;;;;;;;;;;;;18.45;59.42;102409.06;5054258;28;20368;-40
2021/06/08 07:01:41;;;;;;;;;;;;;;;18.56;59.51;102401.03;5053902;28;19920;-40
2021/06/08 07:04:07;;;;;;;;;;;;;;;18.47;58.35;102404.16;5053836;28;19919;-40
2021/06/08 07:06:33;;;;;;;;;;;;;;;18.45;60.19;102405.50;5054499;28;19999;-40
2021/06/08 07:09:00;;;;;;;;;;;;;;;18.48;59.97;102408.56;5054128;28;19940;-40
2021/06/08 07:11:25;;;;;;;;;;;;;;;18.57;59.53;102408.16;5053905;28;19966;-40
2021/06/08 07:13:51;;;;;;;;;;;;;;;18.65;58.99;102410.53;5053739;28;19912;-40
2021/06/08 07:16:17;;;;;;;;;;;;;;;18.69;58.86;102409.81;5054288;28;19921;-40
2021/06/08 07:18:45;;;;;;;;;;;;;;;18.84;59.19;102419.34;5053410;28;19913;-40
2021/06/08 07:21:10;;;;;;;;;;;;;;;18.96;59.54;102406.41;5053502;28;19920;-41
2021/06/08 07:23:36;;;;;;;;;;;;;;;18.93;58.32;102412.38;5054532;28;19913;-41
2021/06/08 07:26:01;;;;;;;;;;;;;;;18.98;58.85;102402.34;5054253;28;20003;-40
2021/06/08 07:28:27;;;;;;;;;;;;;;;19.03;58.49;102407.06;5053656;28;19913;-41
2021/06/08 07:30:54;;;;;;;;;;;;;;;19.10;58.09;102405.00;5053663;28;19917;-40
2021/06/08 07:33:38;;;;;;;;;;;;;;;19.15;57.26;102405.06;5053632;28;20003;-41
2021/06/08 07:36:03;;;;;;;;;;;;;;;19.20;57.03;102396.09;5054084;28;19913;-40
2021/06/08 07:38:31;;;;;;;;;;;;;;;19.24;57.21;102394.50;5053282;28;19920;-40
2021/06/08 07:40:59;;;;;;;;;;;;;;;19.29;57.42;102395.41;5053614;28;19913;-40
2021/06/08 07:43:28;;;;;;;;;;;;;;;19.37;57.08;102405.09;5053681;28;19917;-40
2021/06/08 07:45:54;;;;;;;;;;;;;;;19.48;56.94;102403.38;5053511;28;19960;-41
2021/06/08 07:48:24;;;;;;;;;;;;;;;19.58;57.12;102400.75;5053154;28;19919;-40
2021/06/08 07:50:51;;;;;;;;;;;;;;;19.70;56.21;102412.47;5054113;28;20319;-40
2021/06/08 07:53:20;;;;;;;;;;;;;;;19.78;54.91;102409.28;5053293;28;20233;-40
2021/06/08 07:55:46;;;;;;;;;;;;;;;19.84;54.99;102412.91;5053416;28;19960;-40
2021/06/08 07:58:11;;;;;;;;;;;;;;;19.89;53.52;102402.00;5054037;28;19966;-40
2021/06/08 08:00:37;;;;;;;;;;;;;;;19.97;54.14;102407.06;5053640;28;19916;-41
2021/06/08 08:05:48;;;;;;;;;;;;;;;20.16;52.77;102403.97;5053390;28;19958;-40
2021/06/08 08:08:18;;;;;;;;;;;;;;;20.25;53.68;102413.38;5053028;28;19912;-40
2021/06/08 08:10:44;;;;;;;;;;;;;;;20.35;52.49;102404.44;5053799;28;20019;-40
2021/06/08 08:13:09;;;;;;;;;;;;;;;20.33;53.38;102405.53;5052990;28;20019;-40
2021/06/08 08:15:35;;;;;;;;;;;;;;;20.39;53.03;102403.66;5053121;28;19921;-41
2021/06/08 08:18:00;;;;;;;;;;;;;;;20.41;47.89;102403.41;5053714;28;19916;-41
2021/06/08 08:20:39;;;;;;;;;;;;;;;20.51;51.65;102400.78;5053973;28;19913;-40
2021/06/08 08:23:04;;;;;;;;;;;;;;;20.66;51.55;102395.44;5053231;28;20327;-41
2021/06/08 08:25:29;;;;;;;;;;;;;;;20.83;50.50;102382.38;5056775;28;19913;-41
2021/06/08 08:27:55;;;;;;;;;;;;;;;20.99;50.15;102393.50;5056682;28;19958;-40
2021/06/08 08:30:20;;;;;;;;;;;;;;;21.09;47.64;102385.34;5057496;28;19924;-41
2021/06/08 08:32:45;;;;;;;;;;;;;;;21.19;47.25;102374.41;5056313;28;19913;-41
2021/06/08 08:35:11;;;;;;;;;;;;;;;21.27;47.65;102376.63;5056518;28;20011;-41
2021/06/08 08:37:37;;;;;;;;;;;;;;;21.37;45.58;102375.06;5056582;28;19935;-41
2021/06/08 08:40:02;;;;;;;;;;;;;;;21.39;45.91;102379.22;5056289;28;19913;-41
2021/06/08 08:42:27;;;;;;;;;;;;;;;21.48;47.88;102379.56;5056455;28;19917;-41
2021/06/08 08:44:53;;;;;;;;;;;;;;;21.49;45.44;102372.94;5056491;28;19925;-41
2021/06/08 08:47:18;;;;;;;;;;;;;;;21.51;44.30;102368.00;5056024;28;20019;-41
2021/06/08 08:49:43;;;;;;;;;;;;;;;21.53;45.40;102369.41;5056395;28;19916;-40
2021/06/08 08:52:09;;;;;;;;;;;;;;;21.24;43.77;102365.34;5056291;28;19966;-41
2021/06/08 08:54:36;;;;;;;;;;;;;;;21.42;45.84;102356.66;5056204;28;19917;-41
2021/06/08 08:57:01;;;;;;;;;;;;;;;21.67;46.60;102366.97;5056774;28;20308;-41
2021/06/08 08:59:28;;;;;;;;;;;;;;;21.92;45.34;102354.41;5056715;28;19913;-40
2021/06/08 09:01:55;;;;;;;;;;;;;;;22.12;45.21;102359.16;5055832;28;20011;-40
2021/06/08 09:04:21;;;;;;;;;;;;;;;22.29;44.58;102355.06;5056625;28;20311;-40
2021/06/08 09:06:46;;;;;;;;;;;;;;;22.34;42.01;102352.31;5056638;28;19919;-40
2021/06/08 09:09:12;;;;;;;;;;;;;;;22.25;43.41;102353.09;5055781;28;20357;-40
2021/06/08 09:11:41;;;;;;;;;;;;;;;22.38;42.22;102355.34;5056775;28;19935;-40
2021/06/08 09:15:33;;;;;;;3.65;2.65;;;;;;;22.52;41.06;102341.84;5172183;27;81220;-40
2021/06/08 09:17:59;;;;;;;4.00;2.70;;;;;;;22.57;40.64;102345.44;5152942;27;20027;-40
2021/06/08 09:20:26;;;;;;;3.47;2.67;;;;;;;22.69;40.79;102345.13;5152352;27;20046;-40
2021/06/08 09:22:52;;;;;;;4.35;2.85;;;;;;;22.56;40.81;102348.47;5152869;27;20023;-41
2021/06/08 09:25:39;;;;;;;9.70;3.30;;;;;;;22.73;40.22;102339.91;5152520;27;20054;-40
2021/06/08 09:28:17;;;;;;;5.10;3.05;;;;;;;22.34;40.56;102351.47;5152346;27;20023;-40
2021/06/08 09:30:43;;;;;;;5.65;3.50;;;;;;;22.30;40.58;102345.69;5152356;27;20113;-40
2021/06/08 09:33:29;;;;;;;3.75;2.67;;;;;;;22.71;41.63;102342.94;5152190;27;20102;-40
2021/06/08 09:35:57;;;;;;;5.78;2.45;;;;;;;22.84;42.45;102341.56;5138007;27;20031;-40
2021/06/08 09:38:34;;;;;;;3.80;2.80;;;;;;;22.83;40.00;102331.63;5151917;27;20022;-40
2021/06/08 09:41:20;;;;;;;4.53;3.05;;;;;;;22.70;40.15;102337.72;5152458;27;20503;-40
2021/06/08 09:44:10;;;;;;;5.15;2.70;;;;;;;22.69;41.42;102336.88;5151796;27;20066;-41
2021/06/08 09:46:44;;;;;;;7.10;3.35;;;;;;;22.50;41.06;102333.88;5152044;27;20458;-41
2021/06/08 09:49:10;;;;;;;5.53;2.72;;;;;;;22.74;42.33;102338.78;5151670;27;20023;-41
2021/06/08 09:51:52;;;;;;;4.80;3.03;;;;;;;22.76;40.10;102331.91;5150923;27;20043;-41
2021/06/08 09:54:26;;;;;;;5.22;3.47;;;;;;;22.91;40.95;102333.03;5152092;27;20026;-41
2021/06/08 09:57:12;;;;;;;4.57;3.13;;;;;;;23.04;42.29;102327.78;5151580;27;20029;-40
2021/06/08 09:59:43;;;;;;;4.13;2.65;;;;;;;23.18;42.48;102324.41;5152149;27;20423;-41
2021/06/08 10:02:27;;;;;;;3.42;2.35;;;;;;;23.51;38.84;102331.19;5152081;27;20025;-41
2021/06/08 10:04:54;;;;;;;4.40;2.67;;;;;;;23.42;39.45;102333.72;5152495;27;20034;-41
2021/06/08 10:07:31;;;;;;;4.43;2.25;;;;;;;23.77;39.58;102329.19;5151672;27;20027;-41
2021/06/08 10:10:04;;;;;;;3.40;2.22;;;;;;;23.71;37.82;102322.03;5151906;27;20455;-41
2021/06/08 10:12:29;;;;;;;3.25;1.90;;;;;;;24.04;37.45;102323.22;5152086;27;20023;-41
2021/06/08 10:15:08;;;;;;;2.85;1.95;;;;;;;24.04;38.61;102326.00;5151919;27;20103;-41
2021/06/08 10:17:33;;;;;;;5.28;2.42;;;;;;;24.28;38.36;102326.91;5151949;27;20364;-41
2021/06/08 10:20:22;;;;;;;3.58;2.78;;;;;;;24.21;37.94;102318.16;5151980;27;20030;-41
2021/06/08 10:22:47;;;;;;;4.47;2.70;;;;;;;24.36;36.93;102320.81;5151237;27;20451;-41
2021/06/08 10:25:13;;;;;;;3.13;2.63;;;;;;;24.36;37.36;102315.28;5146938;27;20026;-41
2021/06/08 10:27:39;;;;;;;6.00;3.10;;;;;;;24.31;36.67;102317.25;5138202;27;20116;-41
2021/06/08 10:30:06;;;;;;;5.43;3.85;;;;;;;23.94;38.06;102315.00;5137339;27;20015;-41
2021/06/08 10:32:34;;;;;;;4.45;3.60;;;;;;;24.07;38.97;102306.09;5137645;27;20063;-41
2021/06/08 10:35:00;;;;;;;5.97;3.95;;;;;;;24.15;38.72;102309.03;5137523;27;20027;-41
2021/06/08 10:37:26;;;;;;;4.57;3.35;;;;;;;23.91;38.09;102313.63;5136980;27;20019;-41
2021/06/08 10:39:54;;;;;;;4.40;2.67;;;;;;;24.31;41.49;102320.00;5137850;27;20030;-41
2021/06/08 10:42:19;;;;;;;2.53;1.95;;;;;;;24.59;37.15;102301.81;5137125;27;20079;-41
2021/06/08 10:44:45;;;;;;;3.22;2.60;;;;;;;24.68;40.85;102300.06;5137470;27;20468;-41
2021/06/08 10:47:53;;;;;;;3.95;2.60;;;;;;;24.74;36.67;102301.66;5136740;27;20054;-41
2021/06/08 10:50:32;;;;;;;5.30;2.83;;;;;;;24.73;37.40;102307.50;5134513;27;20027;-41
2021/06/08 10:52:59;;;;;;;3.45;2.90;;;;;;;24.64;36.62;102310.06;5137236;27;20023;-41
2021/06/08 10:55:37;;;;;;;4.25;2.35;;;;;;;24.67;37.55;102306.72;5137120;27;20026;-41
2021/06/08 10:58:04;;;;;;;4.55;2.60;;;;;;;24.72;38.31;102308.63;5137478;27;20023;-41
2021/06/08 11:00:35;;;;;;;4.20;2.50;;;;;;;24.82;37.03;102301.03;5136613;27;20031;-41
2021/06/08 11:03:01;;;;;;;3.28;2.50;;;;;;;24.99;37.13;102310.84;5136804;27;20019;-41
2021/06/08 11:05:50;;;;;;;3.85;3.13;;;;;;;24.95;37.56;102312.53;5137340;27;20023;-41
2021/06/08 11:08:17;;;;;;;5.28;2.88;;;;;;;25.18;36.14;102303.44;5136022;27;20478;-41
2021/06/08 11:10:44;;;;;;;4.35;2.95;;;;;;;25.14;36.07;102291.34;5136913;27;20015;-41
2021/06/08 11:13:13;;;;;;;3.00;2.40;;;;;;;25.34;35.21;102302.16;5137025;27;20023;-41
2021/06/08 11:15:41;;;;;;;3.22;2.00;;;;;;;25.43;34.08;102303.16;5137234;27;20043;-41
2021/06/08 11:18:22;;;;;;;3.97;2.30;;;;;;;25.75;35.34;102290.56;5136415;27;20030;-41
2021/06/08 11:21:02;;;;;;;3.50;2.40;;;;;;;25.96;35.36;102296.63;5137068;27;20055;-41
2021/06/08 11:23:42;;;;;;;2.38;2.10;;;;;;;26.11;33.98;102290.84;5136851;27;20458;-41
2021/06/08 11:26:18;;;;;;;3.33;1.88;;;;;;;26.15;34.43;102293.84;5136332;27;20477;-41
2021/06/08 11:28:49;;;;;;;3.17;2.30;;;;;;;26.21;34.35;102298.19;5136873;27;20048;-41
2021/06/08 11:31:16;;;;;;;3.25;2.22;;;;;;;26.07;36.78;102297.31;5137071;27;20068;-41
2021/06/08 11:33:47;;;;;;;2.80;1.90;;;;;;;26.18;35.75;102298.78;5136369;27;20026;-41
2021/06/08 11:36:18;;;;;;;2.90;2.30;;;;;;;26.16;35.13;102296.31;5136577;27;20027;-41
2021/06/08 11:38:45;;;;;;;3.67;2.03;;;;;;;26.19;34.46;102300.41;5135252;27;20088;-41
2021/06/08 11:41:11;;;;;;;3.33;2.25;;;;;;;26.22;33.77;102283.19;5136306;27;20023;-41
2021/06/08 11:43:36;;;;;;;3.15;2.30;;;;;;;25.80;34.05;102293.25;5136160;27;20045;-41
2021/06/08 11:46:01;;;;;;;2.50;2.13;;;;;;;25.88;35.12;102297.31;5135885;27;20125;-41
2021/06/08 11:48:41;;;;;;;2.35;2.10;;;;;;;26.25;35.94;102293.66;5135812;27;20034;-41
2021/06/08 11:51:16;;;;;;;2.10;1.90;;;;;;;26.63;34.83;102288.06;5136605;27;20351;-41
2021/06/08 11:54:08;;;;;;;2.13;1.70;;;;;;;26.81;34.30;102289.13;5135665;27;20106;-41
2021/06/08 11:57:02;;;;;;;2.72;1.50;;;;;;;26.93;34.43;102287.47;5136231;27;20053;-41
2021/06/08 11:59:32;;;;;;;3.45;1.85;;;;;;;26.82;32.76;102283.25;5052250;28;20044;-41
2021/06/08 12:02:06;;;;;;;3.15;1.83;;;;;;;26.55;33.76;102288.75;5052532;28;20040;-41
2021/06/08 12:05:04;;;;;;;2.67;2.03;;;;;;;26.64;34.14;102286.94;5052336;28;20036;-41
2021/06/08 12:07:40;;;;;;;2.90;2.60;;;;;;;26.67;34.89;102278.00;5051984;28;20025;-41
2021/06/08 12:10:06;;;;;;;3.33;2.60;;;;;;;26.55;35.47;102275.72;5052285;28;20041;-41
2021/06/08 12:12:32;;;;;;;4.35;2.17;;;;;;;26.32;37.74;102277.47;5051864;28;20103;-41
2021/06/08 12:14:57;;;;;;;4.57;2.47;;;;;;;25.97;34.06;102269.75;5051706;28;20049;-41
2021/06/08 12:17:23;;;;;;;2.45;2.00;;;;;;;26.07;34.56;102278.72;5052508;28;20057;-41
2021/06/08 12:19:49;;;;;;;2.03;1.77;;;;;;;26.07;35.60;102270.41;5052032;28;20476;-41
2021/06/08 12:22:18;;;;;;;2.53;1.85;;;;;;;26.32;34.43;102266.38;5051579;28;20032;-41
2021/06/08 12:24:58;;;;;;;2.28;1.80;;;;;;;26.51;34.97;102279.41;5051626;28;20385;-41
2021/06/08 12:27:41;;;;;;;5.22;2.60;;;;;;;26.86;33.79;102264.88;5051896;28;20032;-41